Portada
METAR-TAF:

METAR-TAF

Aeropuertos :

Mirny, Rusia

latitud: 62-31-48N, longitud: 114-01-48E, altitud: 347 m

Observación

El informe se hizo hace 55 minutos, a las 20:00 UTC
Viento 2 kt con dirección variable
Temperatura 15°C
Humedad 94%
Presión 1005 hPa
Visibilidad 10 km o más
sin nubes por debajo de 1500 m y sin presencia de cumulonimbus.

METAR: UERR 152000Z VRB01MPS CAVOK 15/14 Q1005 R07/CLRD60 NOSIG RMK QFE724/0965

Hora: 05:55 (20:55 UTC)

Pronóstico

El informe se hizo hace 55 minutos, a las 20:00 UTC
Pronóstico válido del 15 a las 21 UTC al 16 a las 21 UTC
Viento 2 kt con dirección variable
Visibilidad 10 km o más
Nubes dispersas a una altura de 2300 ft, Cumulonimbus.
Cielo nuboso a una altura de 10000 ft
Temporalmente
del 15 a las 21 UTC al 16 a las 02 UTC
Visibilidad: 1000 m
a una altura de 400 ft
neblina,

TAF: UERR 152000Z 1521/1621 VRB01MPS 9999 SCT023CB BKN100 TEMPO 1521/1602 1000 BR VV004

Observaciones y pronósticos meteorológicos de más de 4000 aeropuertos (mensajes METAR y TAF).

Los puntos amarillos y rojos representan las estaciones disponibles.

Ponga el ratón en el punto deseado para ver el nombre de la estación.

Haga clic para ver las observaciones y los pronósticos meteorológicos.

Para cambiar el mapa : haga clic en los botones verdes con una cruz de color negro para hacer un zoom, en el botón verde con un guión para alejar o en las flechas verdes para mapas adyacentes.


METAR-TAF: